createdAt,value
2024-01-30T00:00:09.270Z,60.42
2024-01-30T00:02:57.920Z,60.30
2024-01-30T00:05:26.507Z,60.33
2024-01-30T00:07:54.851Z,60.36
2024-01-30T00:10:23.274Z,60.56
2024-01-30T00:12:51.748Z,60.50
2024-01-30T00:15:20.465Z,60.38
2024-01-30T00:17:49.061Z,60.33
2024-01-30T00:20:17.679Z,60.39
2024-01-30T00:22:46.410Z,60.25
2024-01-30T00:25:14.905Z,60.31
2024-01-30T00:27:43.693Z,60.37
2024-01-30T00:30:13.166Z,60.53
2024-01-30T00:32:41.901Z,60.48
2024-01-30T00:35:11.673Z,60.57
2024-01-30T00:37:40.000Z,60.49
2024-01-30T00:40:09.070Z,60.59
2024-01-30T00:42:37.524Z,60.58
2024-01-30T00:45:06.290Z,60.94
2024-01-30T00:47:34.824Z,61.06
2024-01-30T00:50:03.594Z,60.99
2024-01-30T00:52:32.122Z,61.00
2024-01-30T00:55:01.133Z,61.22
2024-01-30T00:57:29.759Z,61.19
2024-01-30T00:59:58.663Z,61.25
2024-01-30T01:02:27.129Z,61.28
2024-01-30T01:04:55.685Z,61.19
2024-01-30T01:07:24.645Z,61.34
2024-01-30T01:09:53.112Z,61.24
2024-01-30T01:12:21.581Z,61.18
2024-01-30T01:14:50.314Z,61.20
2024-01-30T01:17:19.802Z,61.39
2024-01-30T01:19:48.389Z,61.26
2024-01-30T01:22:18.585Z,61.32
2024-01-30T01:24:47.115Z,61.47
2024-01-30T01:27:15.524Z,61.56
2024-01-30T01:29:44.344Z,61.57
2024-01-30T01:32:12.780Z,61.64
2024-01-30T01:34:41.284Z,61.49
2024-01-30T01:37:09.876Z,61.56
2024-01-30T01:39:38.563Z,61.66
2024-01-30T01:42:07.883Z,61.74
2024-01-30T01:44:36.259Z,61.69
2024-01-30T01:47:04.808Z,61.76
2024-01-30T01:49:33.749Z,61.83
2024-01-30T01:52:02.294Z,61.85
2024-01-30T01:54:31.233Z,61.87
2024-01-30T01:57:00.674Z,61.88
2024-01-30T01:59:29.306Z,61.94
2024-01-30T02:01:58.483Z,62.00
2024-01-30T02:04:27.513Z,62.07
2024-01-30T02:06:56.168Z,62.18
2024-01-30T02:09:24.534Z,62.26
2024-01-30T02:11:53.057Z,62.35
2024-01-30T02:14:22.364Z,62.32
2024-01-30T02:16:50.986Z,62.36
2024-01-30T02:19:19.487Z,62.35
2024-01-30T02:21:48.145Z,62.36
2024-01-30T02:24:16.526Z,62.45
2024-01-30T02:26:45.314Z,62.36
2024-01-30T02:29:13.532Z,62.69
2024-01-30T02:31:42.437Z,62.66
2024-01-30T02:34:11.314Z,62.63
2024-01-30T02:36:39.677Z,62.62
2024-01-30T02:39:08.137Z,62.71
2024-01-30T02:41:37.021Z,62.75
2024-01-30T02:44:05.464Z,62.79
2024-01-30T02:46:33.882Z,62.93
2024-01-30T02:49:03.219Z,62.96
2024-01-30T02:51:32.510Z,62.73
2024-01-30T02:54:00.980Z,62.85
2024-01-30T02:56:29.351Z,62.92
2024-01-30T02:58:57.858Z,62.86
2024-01-30T03:01:26.331Z,62.96
2024-01-30T03:03:54.789Z,63.00
2024-01-30T03:06:24.193Z,62.97
2024-01-30T03:08:52.579Z,63.17
2024-01-30T03:11:21.083Z,63.16
2024-01-30T03:13:49.345Z,63.09
2024-01-30T03:16:17.765Z,63.10
2024-01-30T03:18:46.234Z,63.20
2024-01-30T03:21:14.606Z,63.02
2024-01-30T03:23:42.996Z,63.03
2024-01-30T03:26:13.815Z,63.19
2024-01-30T03:28:42.372Z,63.29
2024-01-30T03:31:10.668Z,63.07
2024-01-30T03:33:39.422Z,63.10
2024-01-30T03:36:09.099Z,63.23
2024-01-30T03:38:37.443Z,63.06
2024-01-30T03:41:09.057Z,63.14
2024-01-30T03:43:37.875Z,63.35
2024-01-30T03:46:06.533Z,63.35
2024-01-30T03:48:34.964Z,63.38
2024-01-30T03:51:03.706Z,63.48
2024-01-30T03:53:32.479Z,63.36
2024-01-30T03:56:00.838Z,63.45
2024-01-30T03:58:29.404Z,63.43
2024-01-30T04:00:58.142Z,63.58
2024-01-30T04:03:26.749Z,63.63
2024-01-30T04:05:55.486Z,63.68
2024-01-30T04:08:23.956Z,63.87
2024-01-30T04:10:52.366Z,63.73
2024-01-30T04:13:20.808Z,63.76
2024-01-30T04:15:49.322Z,63.97
2024-01-30T04:18:17.964Z,63.96
2024-01-30T04:20:46.432Z,64.17
2024-01-30T04:23:15.132Z,64.11
2024-01-30T04:25:43.616Z,64.14
2024-01-30T04:28:13.371Z,64.13
2024-01-30T04:30:41.813Z,64.12
2024-01-30T04:33:11.836Z,64.13
2024-01-30T04:35:40.399Z,64.25
2024-01-30T04:38:08.805Z,64.20
2024-01-30T04:40:37.060Z,64.26
2024-01-30T04:43:05.650Z,64.23
2024-01-30T04:45:34.178Z,64.24
2024-01-30T04:48:02.515Z,64.27
2024-01-30T04:50:31.073Z,64.26
2024-01-30T04:52:59.630Z,64.25
2024-01-30T04:55:27.905Z,64.51
2024-01-30T04:57:56.278Z,64.40
2024-01-30T05:00:25.221Z,64.48
2024-01-30T05:02:53.578Z,64.54
2024-01-30T05:05:22.931Z,64.49
2024-01-30T05:07:51.665Z,64.48
2024-01-30T05:10:20.140Z,64.47
2024-01-30T05:12:48.501Z,64.56
2024-01-30T05:15:16.827Z,64.47
2024-01-30T05:17:45.288Z,64.69
2024-01-30T05:20:14.259Z,64.61
2024-01-30T05:22:46.640Z,64.64
2024-01-30T05:25:15.017Z,64.63
2024-01-30T05:27:43.721Z,64.71
2024-01-30T05:30:12.671Z,64.61
2024-01-30T05:32:41.162Z,64.78
2024-01-30T05:35:10.046Z,64.58
2024-01-30T05:37:38.510Z,64.63
2024-01-30T05:40:07.440Z,64.54
2024-01-30T05:42:35.897Z,64.69
2024-01-30T05:45:06.630Z,64.55
2024-01-30T05:47:38.321Z,64.58
2024-01-30T05:50:07.756Z,64.53
2024-01-30T05:52:36.348Z,64.65
2024-01-30T05:55:06.007Z,64.56
2024-01-30T05:57:34.422Z,64.55
2024-01-30T06:00:03.352Z,64.62
2024-01-30T06:02:33.199Z,64.81
2024-01-30T06:05:01.789Z,64.71
2024-01-30T06:07:33.488Z,64.74
2024-01-30T06:10:05.365Z,64.65
2024-01-30T06:12:33.750Z,64.69
2024-01-30T06:15:03.101Z,64.77
2024-01-30T06:17:31.668Z,64.72
2024-01-30T06:20:00.647Z,64.54
2024-01-30T06:22:29.236Z,64.66
2024-01-30T06:24:57.711Z,64.65
2024-01-30T06:27:26.023Z,64.80
2024-01-30T06:29:54.278Z,64.67
2024-01-30T06:32:22.932Z,64.56
2024-01-30T06:34:51.264Z,64.66
2024-01-30T06:37:19.810Z,64.75
2024-01-30T06:39:48.174Z,64.88
2024-01-30T06:42:17.339Z,64.64
2024-01-30T06:44:45.680Z,64.72
2024-01-30T06:47:14.550Z,64.87
2024-01-30T06:49:44.964Z,65.05
2024-01-30T06:52:13.969Z,64.80
2024-01-30T06:54:42.598Z,64.71
2024-01-30T06:57:13.206Z,64.83
2024-01-30T06:59:44.722Z,64.81
2024-01-30T07:02:13.426Z,64.98
2024-01-30T07:04:46.522Z,65.15
2024-01-30T07:07:16.973Z,65.42
2024-01-30T07:09:45.889Z,65.27
2024-01-30T07:12:14.319Z,65.15
2024-01-30T07:14:42.862Z,65.18
2024-01-30T07:17:11.417Z,64.95
2024-01-30T07:19:39.720Z,65.07
2024-01-30T07:22:09.333Z,65.08
2024-01-30T07:24:37.642Z,65.24
2024-01-30T07:27:05.991Z,65.27
2024-01-30T07:29:34.702Z,65.16
2024-01-30T07:32:03.262Z,65.19
2024-01-30T07:34:32.443Z,64.97
2024-01-30T07:37:03.422Z,64.89
2024-01-30T07:39:32.016Z,65.00
2024-01-30T07:42:00.536Z,64.91
2024-01-30T07:44:29.190Z,64.85
2024-01-30T07:46:58.366Z,65.05
2024-01-30T07:49:26.722Z,64.95
2024-01-30T07:51:55.253Z,65.01
2024-01-30T07:54:24.622Z,64.74
2024-01-30T07:56:53.024Z,64.73
2024-01-30T07:59:23.484Z,64.81
2024-01-30T08:01:51.950Z,64.74
2024-01-30T08:04:20.452Z,64.81
2024-01-30T08:06:49.143Z,64.75
2024-01-30T08:09:17.526Z,64.71
2024-01-30T08:11:46.015Z,64.72
2024-01-30T08:14:15.129Z,64.71
2024-01-30T08:16:43.507Z,64.60
2024-01-30T08:19:12.047Z,64.44
2024-01-30T08:21:40.431Z,64.43
2024-01-30T08:24:09.071Z,64.58
2024-01-30T08:26:38.232Z,64.41
2024-01-30T08:29:06.999Z,64.43
2024-01-30T08:31:35.526Z,64.39
2024-01-30T08:34:03.962Z,64.24
2024-01-30T08:36:32.301Z,64.26
2024-01-30T08:39:02.923Z,64.14
2024-01-30T08:41:33.445Z,64.04
2024-01-30T08:44:01.931Z,64.11
2024-01-30T08:46:30.379Z,64.12
2024-01-30T08:48:58.805Z,63.96
2024-01-30T08:51:27.371Z,63.92
2024-01-30T08:53:55.632Z,63.83
2024-01-30T08:56:23.937Z,63.84
2024-01-30T08:58:52.498Z,63.75
2024-01-30T09:01:21.210Z,63.67
2024-01-30T09:03:49.588Z,63.69
2024-01-30T09:06:18.203Z,63.52
2024-01-30T09:08:46.598Z,63.56
2024-01-30T09:11:16.372Z,63.49
2024-01-30T09:13:44.970Z,63.41
2024-01-30T09:16:13.538Z,63.27
2024-01-30T09:18:42.055Z,63.37
2024-01-30T09:21:11.331Z,63.47
2024-01-30T09:23:39.532Z,63.24
2024-01-30T09:26:07.957Z,63.15
2024-01-30T09:28:36.744Z,63.10
2024-01-30T09:31:05.505Z,62.98
2024-01-30T09:33:34.468Z,63.01
2024-01-30T09:36:02.815Z,62.70
2024-01-30T09:38:31.043Z,62.65
2024-01-30T09:41:01.792Z,62.73
2024-01-30T09:43:35.850Z,62.65
2024-01-30T09:46:05.648Z,62.59
2024-01-30T09:48:35.354Z,62.44
2024-01-30T09:51:04.589Z,61.96
2024-01-30T09:53:33.292Z,61.96
2024-01-30T09:56:03.922Z,61.55
2024-01-30T09:58:32.236Z,61.00
2024-01-30T10:01:00.879Z,60.14
2024-01-30T10:03:29.282Z,59.90
2024-01-30T10:05:58.269Z,59.73
2024-01-30T10:08:27.859Z,59.61
2024-01-30T10:10:56.117Z,59.47
2024-01-30T10:13:24.416Z,59.53
2024-01-30T10:15:54.258Z,59.50
2024-01-30T10:18:24.441Z,59.19
2024-01-30T10:20:53.270Z,58.98
2024-01-30T10:23:21.600Z,58.87
2024-01-30T10:25:50.002Z,58.26
2024-01-30T10:28:18.424Z,58.06
2024-01-30T10:30:47.081Z,58.17
2024-01-30T10:33:15.494Z,58.04
2024-01-30T10:35:44.474Z,57.82
2024-01-30T10:38:16.621Z,57.90
2024-01-30T10:40:46.476Z,57.74
2024-01-30T10:43:18.272Z,57.73
2024-01-30T10:45:50.808Z,57.58
2024-01-30T10:48:23.869Z,57.40
2024-01-30T10:51:00.986Z,57.15
2024-01-30T10:53:32.558Z,57.33
2024-01-30T10:56:02.525Z,57.08
2024-01-30T10:58:31.053Z,57.01
2024-01-30T11:01:00.396Z,56.67
2024-01-30T11:03:29.260Z,56.65
2024-01-30T11:06:01.236Z,56.44
2024-01-30T11:08:30.038Z,56.37
2024-01-30T11:10:59.899Z,55.94
2024-01-30T11:13:30.853Z,55.95
2024-01-30T11:16:04.042Z,55.61
2024-01-30T11:18:34.387Z,55.06
2024-01-30T11:21:05.583Z,55.17
2024-01-30T11:23:35.855Z,54.88
2024-01-30T11:26:05.326Z,54.90
2024-01-30T11:28:37.762Z,54.40
2024-01-30T11:31:08.360Z,54.34
2024-01-30T11:33:37.019Z,54.12
2024-01-30T11:36:08.199Z,54.00
2024-01-30T11:38:37.053Z,53.63
2024-01-30T11:41:06.090Z,53.36
2024-01-30T11:43:36.334Z,53.15
2024-01-30T11:46:10.569Z,53.36
2024-01-30T11:48:38.968Z,53.46
2024-01-30T11:51:07.582Z,53.28
2024-01-30T11:53:36.031Z,53.09
2024-01-30T11:56:07.571Z,53.22
2024-01-30T11:58:35.963Z,53.48
2024-01-30T12:01:04.715Z,53.62
2024-01-30T12:03:33.583Z,53.76
2024-01-30T12:06:04.534Z,53.81
2024-01-30T12:08:32.853Z,53.83
2024-01-30T12:11:06.628Z,53.92
2024-01-30T12:13:35.934Z,53.93
2024-01-30T12:16:05.020Z,53.98
2024-01-30T12:18:33.266Z,54.00
2024-01-30T12:21:04.290Z,54.10
2024-01-30T12:23:33.770Z,54.05
2024-01-30T12:26:04.655Z,54.40
2024-01-30T12:28:32.984Z,54.53
2024-01-30T12:31:05.647Z,54.51
2024-01-30T12:33:34.315Z,54.47
2024-01-30T12:36:04.428Z,54.57
2024-01-30T12:38:33.227Z,54.67
2024-01-30T12:41:01.844Z,54.66
2024-01-30T12:43:37.679Z,54.75
2024-01-30T12:46:07.833Z,54.77
2024-01-30T12:51:21.930Z,55.03
2024-01-30T12:53:50.274Z,55.08
2024-01-30T12:56:18.604Z,54.99
2024-01-30T12:58:50.994Z,55.13
2024-01-30T13:01:20.433Z,55.26
2024-01-30T13:03:49.321Z,55.26
2024-01-30T13:06:17.701Z,55.38
2024-01-30T13:08:46.280Z,55.44
2024-01-30T13:11:20.940Z,55.53
2024-01-30T13:13:50.636Z,55.61
2024-01-30T13:16:19.213Z,55.68
2024-01-30T13:18:47.709Z,55.67
2024-01-30T13:21:16.096Z,55.77
2024-01-30T13:23:44.658Z,55.88
2024-01-30T13:26:13.260Z,55.88
2024-01-30T13:28:41.534Z,55.94
2024-01-30T13:31:09.922Z,55.99
2024-01-30T13:33:38.308Z,56.11
2024-01-30T13:36:07.962Z,56.08
2024-01-30T13:38:36.441Z,56.19
2024-01-30T13:41:05.353Z,56.19
2024-01-30T13:43:33.700Z,56.20
2024-01-30T13:46:02.625Z,56.12
2024-01-30T13:48:32.304Z,56.24
2024-01-30T13:51:00.780Z,56.30
2024-01-30T13:53:30.288Z,56.43
2024-01-30T13:55:58.639Z,56.49
2024-01-30T13:58:27.113Z,56.45
2024-01-30T14:00:56.367Z,56.64
2024-01-30T14:03:24.912Z,56.72
2024-01-30T14:05:53.497Z,56.67
2024-01-30T14:08:25.195Z,56.76
2024-01-30T14:10:53.649Z,56.84
2024-01-30T14:13:22.413Z,57.00
2024-01-30T14:15:50.989Z,56.90
2024-01-30T14:18:21.698Z,57.03
2024-01-30T14:20:50.572Z,57.05
2024-01-30T14:23:19.515Z,57.06
2024-01-30T14:25:47.938Z,57.10
2024-01-30T14:28:16.709Z,57.22
2024-01-30T14:30:45.289Z,57.23
2024-01-30T14:33:13.930Z,57.26
2024-01-30T14:35:42.670Z,57.30
2024-01-30T14:38:10.985Z,57.51
2024-01-30T14:40:40.640Z,57.43
2024-01-30T14:43:10.477Z,57.59
2024-01-30T14:45:40.108Z,57.67
2024-01-30T14:48:08.819Z,57.76
2024-01-30T14:50:37.345Z,57.85
2024-01-30T14:53:05.804Z,57.86
2024-01-30T14:55:34.119Z,57.90
2024-01-30T14:58:03.752Z,57.84
2024-01-30T15:00:32.275Z,57.91
2024-01-30T15:03:00.526Z,57.92
2024-01-30T15:05:29.604Z,58.14
2024-01-30T15:07:58.162Z,58.21
2024-01-30T15:10:26.859Z,58.24
2024-01-30T15:12:55.345Z,58.24
2024-01-30T15:15:25.154Z,58.32
2024-01-30T15:17:55.370Z,58.37
2024-01-30T15:20:23.928Z,58.45
2024-01-30T15:22:52.327Z,58.47
2024-01-30T15:25:20.741Z,58.54
2024-01-30T15:27:49.446Z,58.51
2024-01-30T15:30:17.980Z,58.66
2024-01-30T15:32:46.315Z,58.78
2024-01-30T15:35:14.851Z,58.83
2024-01-30T15:37:43.329Z,58.86
2024-01-30T15:40:12.813Z,58.90
2024-01-30T15:42:41.081Z,58.89
2024-01-30T15:45:09.775Z,58.93
2024-01-30T15:47:38.260Z,58.98
2024-01-30T15:50:07.445Z,59.08
2024-01-30T15:52:36.269Z,59.12
2024-01-30T15:55:05.146Z,59.25
2024-01-30T15:57:33.575Z,59.26
2024-01-30T16:00:02.293Z,59.30
2024-01-30T16:02:40.377Z,59.42
2024-01-30T16:05:12.402Z,59.39
2024-01-30T16:07:40.867Z,59.42
2024-01-30T16:10:09.871Z,59.61
2024-01-30T16:12:38.316Z,59.55
2024-01-30T16:15:07.007Z,59.58
2024-01-30T16:17:37.245Z,59.85
2024-01-30T16:20:07.334Z,59.78
2024-01-30T16:22:36.609Z,59.82
2024-01-30T16:25:05.745Z,59.94
2024-01-30T16:27:39.266Z,60.03
2024-01-30T16:30:10.553Z,60.04
2024-01-30T16:32:39.010Z,60.03
2024-01-30T16:35:07.680Z,60.22
2024-01-30T16:37:36.085Z,60.33
2024-01-30T16:40:05.649Z,60.32
2024-01-30T16:42:34.136Z,60.33
2024-01-30T16:45:02.499Z,60.30
2024-01-30T16:47:31.183Z,60.28
2024-01-30T16:49:59.953Z,60.56
2024-01-30T16:52:28.590Z,60.41
2024-01-30T16:54:57.051Z,60.62
2024-01-30T16:57:25.329Z,60.64
2024-01-30T16:59:53.805Z,60.57
2024-01-30T17:02:22.162Z,60.71
2024-01-30T17:04:50.621Z,60.82
2024-01-30T17:07:19.636Z,60.81
2024-01-30T17:09:48.837Z,60.88
2024-01-30T17:12:17.733Z,60.90
2024-01-30T17:14:48.046Z,60.94
2024-01-30T17:17:16.660Z,60.99
2024-01-30T17:19:45.145Z,60.92
2024-01-30T17:22:13.845Z,61.10
2024-01-30T17:24:49.694Z,61.14
2024-01-30T17:27:19.404Z,61.15
2024-01-30T17:29:48.561Z,61.27
2024-01-30T17:32:17.019Z,61.40
2024-01-30T17:34:45.480Z,61.36
2024-01-30T17:37:14.101Z,61.56
2024-01-30T17:39:42.999Z,61.59
2024-01-30T17:42:11.484Z,61.65
2024-01-30T17:44:41.804Z,61.71
2024-01-30T17:47:10.875Z,61.78
2024-01-30T17:49:40.165Z,61.74
2024-01-30T17:52:09.772Z,61.86
2024-01-30T17:54:38.356Z,61.81
2024-01-30T17:57:07.096Z,61.92
2024-01-30T17:59:37.265Z,62.17
2024-01-30T18:02:05.925Z,62.07
2024-01-30T18:04:34.638Z,62.14
2024-01-30T18:07:03.399Z,62.08
2024-01-30T18:09:32.052Z,62.13
2024-01-30T18:12:01.061Z,62.27
2024-01-30T18:14:29.398Z,62.19
2024-01-30T18:16:57.784Z,62.28
2024-01-30T18:19:28.460Z,62.28
2024-01-30T18:21:57.015Z,62.29
2024-01-30T18:24:26.987Z,62.34
2024-01-30T18:26:56.256Z,62.40
2024-01-30T18:29:25.005Z,62.29
2024-01-30T18:31:53.384Z,62.52
2024-01-30T18:34:21.828Z,62.48
2024-01-30T18:36:50.486Z,62.46
2024-01-30T18:39:18.922Z,62.38
2024-01-30T18:41:47.404Z,62.42
2024-01-30T18:44:15.917Z,62.36
2024-01-30T18:46:44.596Z,62.43
2024-01-30T18:49:18.689Z,62.45
2024-01-30T18:51:50.632Z,62.61
2024-01-30T18:54:21.167Z,62.49
2024-01-30T18:56:50.852Z,62.42
2024-01-30T18:59:19.452Z,62.42
2024-01-30T19:01:49.192Z,62.55
2024-01-30T19:04:17.720Z,62.76
2024-01-30T19:06:53.323Z,62.79
2024-01-30T19:09:26.962Z,62.66
2024-01-30T19:11:55.528Z,62.64
2024-01-30T19:14:24.112Z,62.76
2024-01-30T19:16:53.048Z,62.74
2024-01-30T19:19:21.970Z,62.87
2024-01-30T19:21:50.466Z,62.78
2024-01-30T19:24:18.888Z,62.82
2024-01-30T19:26:49.494Z,62.84
2024-01-30T19:29:17.895Z,62.94
2024-01-30T19:31:47.083Z,62.83
2024-01-30T19:34:15.924Z,62.64
2024-01-30T19:36:44.275Z,62.69
2024-01-30T19:39:14.559Z,62.83
2024-01-30T19:41:45.160Z,62.76
2024-01-30T19:44:13.675Z,62.79
2024-01-30T19:46:42.046Z,62.86
2024-01-30T19:49:11.325Z,62.85
2024-01-30T19:51:39.967Z,62.83
2024-01-30T19:54:12.116Z,62.70
2024-01-30T19:56:41.048Z,62.76
2024-01-30T19:59:09.845Z,62.79
2024-01-30T20:01:38.246Z,62.74
2024-01-30T20:04:07.723Z,62.84
2024-01-30T20:06:36.166Z,62.89
2024-01-30T20:09:04.624Z,62.72
2024-01-30T20:11:33.120Z,62.75
2024-01-30T20:14:01.583Z,62.77
2024-01-30T20:16:38.530Z,62.64
2024-01-30T20:19:11.191Z,62.72
2024-01-30T20:21:40.237Z,62.84
2024-01-30T20:24:10.009Z,62.84
2024-01-30T20:26:39.625Z,62.84
2024-01-30T20:29:08.419Z,62.68
2024-01-30T20:31:37.549Z,62.75
2024-01-30T20:34:06.150Z,62.72
2024-01-30T20:36:34.690Z,62.77
2024-01-30T20:39:04.572Z,62.79
2024-01-30T20:41:40.206Z,62.61
2024-01-30T20:44:09.031Z,62.68
2024-01-30T20:46:37.956Z,62.61
2024-01-30T20:49:06.553Z,62.62
2024-01-30T20:51:35.091Z,62.55
2024-01-30T20:54:03.957Z,62.60
2024-01-30T20:56:32.288Z,62.52
2024-01-30T20:59:01.123Z,62.74
2024-01-30T21:01:29.625Z,62.58
2024-01-30T21:03:58.113Z,62.61
2024-01-30T21:06:26.935Z,62.73
2024-01-30T21:08:55.311Z,62.72
2024-01-30T21:11:23.573Z,62.55
2024-01-30T21:13:52.446Z,62.59
2024-01-30T21:16:21.012Z,62.61
2024-01-30T21:18:49.584Z,62.66
2024-01-30T21:21:18.803Z,62.55
2024-01-30T21:23:47.336Z,62.58
2024-01-30T21:26:16.382Z,62.59
2024-01-30T21:28:44.960Z,62.55
2024-01-30T21:31:15.411Z,62.52
2024-01-30T21:33:44.630Z,62.68
2024-01-30T21:36:13.135Z,62.69
2024-01-30T21:38:41.534Z,62.67
2024-01-30T21:41:10.572Z,62.76
2024-01-30T21:43:39.134Z,62.91
2024-01-30T21:46:08.373Z,62.69
2024-01-30T21:48:37.155Z,62.76
2024-01-30T21:51:06.035Z,62.76
2024-01-30T21:53:34.259Z,62.75
2024-01-30T21:56:02.874Z,62.69
2024-01-30T21:58:32.331Z,62.61
2024-01-30T22:01:01.016Z,62.74
2024-01-30T22:03:29.772Z,62.74
2024-01-30T22:05:58.293Z,62.78
2024-01-30T22:08:27.017Z,63.03
2024-01-30T22:10:55.590Z,62.78
2024-01-30T22:13:25.696Z,62.84
2024-01-30T22:15:54.310Z,62.86
2024-01-30T22:18:22.693Z,62.98
2024-01-30T22:20:51.200Z,62.97
2024-01-30T22:23:19.716Z,62.91
2024-01-30T22:25:48.403Z,63.08
2024-01-30T22:28:16.760Z,62.90
2024-01-30T22:30:45.101Z,63.05
2024-01-30T22:33:13.654Z,63.06
2024-01-30T22:35:42.158Z,62.96
2024-01-30T22:38:11.226Z,63.12
2024-01-30T22:40:40.000Z,63.10
2024-01-30T22:43:08.888Z,63.00
2024-01-30T22:45:37.352Z,63.07
2024-01-30T22:48:06.374Z,63.10
2024-01-30T22:50:34.765Z,63.05
2024-01-30T22:53:03.115Z,63.12
2024-01-30T22:55:31.710Z,63.19
2024-01-30T22:58:00.472Z,63.30
2024-01-30T23:00:30.008Z,63.17
2024-01-30T23:02:58.760Z,63.13
2024-01-30T23:05:27.652Z,63.09
2024-01-30T23:07:55.956Z,63.14
2024-01-30T23:10:24.202Z,63.21
2024-01-30T23:12:53.364Z,63.28
2024-01-30T23:15:21.829Z,63.21
2024-01-30T23:17:50.376Z,63.26
2024-01-30T23:20:18.839Z,63.21
2024-01-30T23:22:48.250Z,63.29
2024-01-30T23:25:16.854Z,63.27
2024-01-30T23:27:45.194Z,63.32
2024-01-30T23:30:14.276Z,63.38
2024-01-30T23:32:43.852Z,63.31
2024-01-30T23:35:12.734Z,63.34
2024-01-30T23:37:41.246Z,63.32
2024-01-30T23:40:13.187Z,63.29
2024-01-30T23:42:41.647Z,63.50
2024-01-30T23:45:11.742Z,63.40
2024-01-30T23:47:40.451Z,63.38
2024-01-30T23:50:09.527Z,63.56
2024-01-30T23:52:47.092Z,63.56
2024-01-30T23:55:15.862Z,63.57
2024-01-30T23:57:44.384Z,63.48
